Commut E145 at Montreal on Dec 27th 2019, overran displaced runway end on landing

Last Update: December 30, 2019 / 22:57:59 GMT/Zulu time

Bookmark this article
Incident Facts

Date of incident
Dec 27, 2019

Classification
Incident

Airline
Commutair

Flight number
C5-5005

Destination
Montreal, Canada

Aircraft Registration
N14148

Aircraft Type
Embraer ERJ-145

ICAO Type Designator
E145

A Commutair Embraer ERJ-145 on behalf of United, registration N14148 performing flight C5-5005/UA-5005 from Newark,NJ (USA) to Montreal,QC (Canada), landed on Montreal's runway 24R at about 12:51L (17:51Z) but was unable to stop before the runway end, that had been displaced temporarily due to repair work on the runway. The aircraft was subsequently cleared to taxi along the closed portion of the runway to the apron.

The Canadian TSB reported there were no injuries and no damage. The available runway length was 7068 feet. Freezing precipitation prevailed at the time of landing.

Related NOTAM:
E1898/19 NOTAMR E1859/19
Q) CZUL/QMDCH/IV/NBO/A/000/999/4528N07344W005
A) CYUL B) 1912231505 C) 2003160459
E) FIRST 2752FT RWY 06L NOT AVBL.
THR 06L IS DISPLACED BY 3932FT.
TEMPO PAPI INSTALLED 1248FT AFTER DTHR AND
RWY THR IDENT LGT INSTALLED ABEAM DTHR
DECLARED DIST WHEN RWY 06L/24R LENGTH IS REDUCED:
RWY 06L TORA 7068 TODA 7068 ASDA 7068 LDA 7068
RWY 24R TORA 8248 TODA 9232 ASDA 8248 LDA 7068

METARs:
CYUL 271900Z 31011KT 2 1/4SM R24L/5000VP6000FT/U -FZDZ BR FEW003 BKN004 OVC006 M01/M01 A2991 RMK SF1SF5ST2 PRESRR SLP131=
CYUL 271820Z CCA VRB02KT 2 1/2SM -FZDZ BR FEW003 BKN004 OVC007 M01/M01 A2986 RMK SF1SF4ST3 PRESFR SLP117=
CYUL 271807Z 34002KT 2 1/2SM -FZRA BR SCT004 OVC006 M01/M02 A2988 RMK SF3ST5 SLP123=
CYUL 271800Z VRB02KT 3SM -FZDZ BR SCT003 OVC006 M01/M02 A2988 RMK SF3ST5 SLP121=
CYUL 271751Z 01003KT 340V070 3SM -FZDZ BR SCT004 OVC006 M01/M02 A2988 RMK SF3ST5 PRESFR SLP123=
CYUL 271729Z 02003KT 4SM -FZDZ BR BKN003 OVC007 M01/M02 A2990 RMK SF5ST3 SLP128=
CYUL 271721Z 36004KT 4SM -FZRA BR SCT004 OVC008 M01/M02 A2990 RMK SF4ST4 SLP130=
CYUL 271700Z 01004KT 3SM R06R/3000VP6000FT/D -FZRA BR FEW003 BKN004 OVC011 M01/M02 A2991 RMK SF2SF4SC2 PRESFR SLP132=
CYUL 271638Z 36006KT 4SM -FZDZ BR BKN004 OVC006 M01/M02 A2992 RMK SF6ST2 SLP137=
CYUL 271623Z 01006KT 4SM -FZDZ BR BKN003 OVC004 M01/M02 A2993 RMK SF5SF3 PRESFR SLP138=
CYUL 271600Z 01006KT 4SM -FZDZ BR FEW003 OVC004 M02/M02 A2995 RMK SF2SF6 SLP146=
CYUL 271549Z 02006KT 4SM -FZDZ BR FEW003 BKN004 OVC007 M02/M02 A2995 RMK SF1SF6SF1 PRESFR SLP147=
CYUL 271500Z 01005KT 4SM -FZRA BR FEW003 BKN004 OVC007 M02/M02 A2999 RMK ST1SF7SF1 ST TR SLP158=
Aircraft Registration Data
Registration mark
N14148
Country of Registration
United States
Date of Registration
Flccef hegkingnn Subscribe to unlock
Manufacturer
EMBRAER
Aircraft Model / Type
EMB-145XR
Number of Seats
ICAO Aircraft Type
E145
Year of Manufacture
Serial Number
Aircraft Address / Mode S Code (HEX)
Engine Count
Engine Manufacturer
Engine Model
Engine Type
Pounds of Thrust
Main Owner
IclgbAAihA dhiibkphgAdqAhcb iph fjhgkiiignppnlhhjpApqdmpnhgcmnflgfihmpf Subscribe to unlock
Incident Facts

Date of incident
Dec 27, 2019

Classification
Incident

Airline
Commutair

Flight number
C5-5005

Destination
Montreal, Canada

Aircraft Registration
N14148

Aircraft Type
Embraer ERJ-145

ICAO Type Designator
E145

This article is published under license from Avherald.com. © of text by Avherald.com.
Article source

You can read 2 more free articles without a subscription.

Subscribe now and continue reading without any limits!

Are you a subscriber? Login
Subscribe

Read unlimited articles and receive our daily update briefing. Gain better insights into what is happening in commercial aviation safety.

Send tip

Support AeroInside by sending a small tip amount.

Related articles

Newest articles

Subscribe today

Are you researching aviation incidents? Get access to AeroInside Insights, unlimited read access and receive the daily newsletter.

Pick your plan and subscribe

Partner

Blockaviation logo

A new way to document and demonstrate airworthiness compliance and aircraft value. Find out more.

Virtual Speech logo

ELITE Simulation Solutions is a leading global provider of Flight Simulation Training Devices, IFR training software as well as flight controls and related services. Find out more.

AeroInside Blog
Popular aircraft
Airbus A320
Boeing 737-800
Boeing 737-800 MAX
Popular airlines
American Airlines
United
Delta
Air Canada
Lufthansa
British Airways